Time;durP1;ratioP1;P1;durP2;ratioP2;P2;SDS_P1;SDS_P2;PMS_P1;PMS_P2;Temp;Humidity;BMP_temperature;BMP_pressure;BME280_temperature;BME280_humidity;BME280_pressure;Samples;Min_cycle;Max_cycle;Signal;HPM_P1;HPM_P2
2023/10/14 00:00:47;;;;;;;14.53;5.37;;;18.30;99.90;;;;;;5011810;28;20262;-69
2023/10/14 00:03:29;;;;;;;26.57;5.70;;;18.30;99.90;;;;;;5010698;28;20292;-69
2023/10/14 00:05:55;;;;;;;16.23;5.07;;;18.30;99.90;;;;;;5012105;28;20172;-69
2023/10/14 00:08:24;;;;;;;18.13;5.50;;;18.20;99.90;;;;;;5011923;28;20178;-69
2023/10/14 00:10:50;;;;;;;20.70;5.20;;;18.20;99.90;;;;;;5011580;28;20246;-69
2023/10/14 00:13:16;;;;;;;20.03;5.17;;;18.30;99.90;;;;;;5011726;28;20193;-70
2023/10/14 00:15:43;;;;;;;17.93;4.93;;;18.40;99.90;;;;;;5039963;28;20198;-69
2023/10/14 00:18:08;;;;;;;16.30;5.10;;;18.40;99.90;;;;;;5014900;28;20189;-69
2023/10/14 00:20:35;;;;;;;12.80;4.70;;;18.40;99.90;;;;;;5011254;28;20582;-69
2023/10/14 00:23:02;;;;;;;11.47;4.60;;;18.50;99.90;;;;;;5011634;28;20191;-69
2023/10/14 00:25:27;;;;;;;18.27;5.10;;;18.40;99.90;;;;;;5011424;28;20187;-69
2023/10/14 00:27:53;;;;;;;15.47;5.03;;;18.50;99.90;;;;;;5011623;28;20212;-69
2023/10/14 00:30:20;;;;;;;20.87;5.80;;;18.50;99.90;;;;;;5011209;28;20188;-69
2023/10/14 00:32:46;;;;;;;21.13;5.23;;;18.50;99.90;;;;;;5011540;28;20284;-69
2023/10/14 00:35:12;;;;;;;15.93;4.47;;;18.60;99.90;;;;;;5011328;28;20220;-69
2023/10/14 00:37:37;;;;;;;22.23;5.83;;;18.70;99.90;;;;;;5011496;28;20971;-69
2023/10/14 00:40:22;;;;;;;23.00;5.70;;;18.70;99.90;;;;;;5011149;28;20189;-69
2023/10/14 00:42:51;;;;;;;24.10;5.23;;;18.60;99.90;;;;;;5010465;28;20204;-70
2023/10/14 00:45:20;;;;;;;14.57;4.67;;;18.70;99.90;;;;;;5019310;28;20760;-69
2023/10/14 00:47:48;;;;;;;13.20;5.10;;;18.70;99.90;;;;;;5011297;28;20264;-69
2023/10/14 00:52:58;;;;;;;17.00;5.00;;;18.80;99.90;;;;;;5011505;28;20714;-69
2023/10/14 00:55:27;;;;;;;26.33;5.33;;;18.80;99.90;;;;;;5010986;28;20185;-69
2023/10/14 00:57:55;;;;;;;23.27;5.07;;;18.80;99.90;;;;;;5011159;28;20598;-69
2023/10/14 01:00:37;;;;;;;17.60;4.73;;;18.80;99.90;;;;;;5009324;28;20235;-69
2023/10/14 01:03:07;;;;;;;18.53;5.40;;;18.80;99.90;;;;;;5011153;28;20581;-70
2023/10/14 01:05:35;;;;;;;16.73;4.77;;;18.70;99.90;;;;;;5010913;28;20672;-70
2023/10/14 01:08:03;;;;;;;17.67;5.27;;;18.80;99.90;;;;;;5010925;28;20559;-69
2023/10/14 01:10:29;;;;;;;11.40;4.23;;;18.80;99.90;;;;;;5009190;28;20188;-70
2023/10/14 01:12:56;;;;;;;14.20;4.63;;;18.90;99.90;;;;;;5010489;28;20196;-70
2023/10/14 01:15:22;;;;;;;14.23;4.80;;;18.80;99.90;;;;;;5010804;28;20185;-69
2023/10/14 01:17:49;;;;;;;14.53;4.57;;;18.90;99.90;;;;;;5010807;28;20172;-69
2023/10/14 01:22:41;;;;;;;13.90;3.77;;;18.90;99.90;;;;;;5010840;28;20295;-69
2023/10/14 01:25:12;;;;;;;15.13;3.60;;;18.80;99.90;;;;;;5010756;28;20212;-69
2023/10/14 01:27:38;;;;;;;12.53;3.70;;;18.90;99.90;;;;;;5018366;28;20204;-69
2023/10/14 01:30:12;;;;;;;10.63;3.83;;;19.00;99.90;;;;;;5010296;28;20176;-69
2023/10/14 01:38:05;;;;;;;12.03;3.20;;;19.10;99.90;;;;;;5024013;28;20261;-68
2023/10/14 01:43:30;;;;;;;13.90;3.20;;;19.00;99.90;;;;;;5013108;28;20342;-69
2023/10/14 01:48:21;;;;;;;8.27;2.80;;;18.90;99.90;;;;;;5010362;28;20183;-69
2023/10/14 01:50:55;;;;;;;12.37;3.60;;;18.90;99.90;;;;;;5010143;28;20192;-69
2023/10/14 01:53:25;;;;;;;15.37;3.50;;;19.00;99.90;;;;;;5011327;28;20616;-69
2023/10/14 01:55:59;;;;;;;7.77;2.70;;;18.90;99.90;;;;;;5014588;28;20180;-68
2023/10/14 02:00:58;;;;;;;10.57;3.03;;;18.90;99.90;;;;;;5013719;28;20215;-69
2023/10/14 02:03:24;;;;;;;11.23;2.80;;;18.80;99.90;;;;;;5014267;28;20172;-69
2023/10/14 02:05:53;;;;;;;13.27;2.97;;;18.80;99.90;;;;;;5014259;28;20260;-68
2023/10/14 02:08:23;;;;;;;6.57;2.50;;;18.80;99.90;;;;;;5014065;28;20188;-68
2023/10/14 02:10:50;;;;;;;9.83;2.70;;;18.80;99.90;;;;;;5013971;28;20228;-68
2023/10/14 02:13:18;;;;;;;10.10;2.50;;;18.70;99.90;;;;;;5013970;28;20188;-68
2023/10/14 02:15:47;;;;;;;4.20;2.20;;;18.70;99.90;;;;;;5013948;28;20246;-68
2023/10/14 02:18:20;;;;;;;7.57;2.40;;;18.70;99.90;;;;;;5013667;28;20192;-68
2023/10/14 02:20:56;;;;;;;11.00;2.57;;;18.70;99.90;;;;;;5013528;28;20307;-68
2023/10/14 02:23:43;;;;;;;9.37;2.87;;;18.70;99.90;;;;;;5013919;28;20207;-68
2023/10/14 02:26:22;;;;;;;12.27;3.07;;;18.70;99.90;;;;;;5014051;28;20250;-68
2023/10/14 02:28:49;;;;;;;7.60;3.10;;;18.70;99.90;;;;;;5013926;28;20227;-68
2023/10/14 02:31:29;;;;;;;13.63;3.33;;;18.50;99.90;;;;;;5013375;28;20208;-70
2023/10/14 02:33:56;;;;;;;7.93;3.00;;;18.30;99.90;;;;;;5012607;28;20188;-69
2023/10/14 02:36:27;;;;;;;8.40;3.40;;;18.20;99.90;;;;;;5013583;28;20185;-69
2023/10/14 02:38:53;;;;;;;16.47;3.47;;;18.00;99.90;;;;;;5013667;28;20640;-69
2023/10/14 02:41:26;;;;;;;13.40;3.17;;;17.90;99.90;;;;;;5013000;28;20215;-68
2023/10/14 02:44:18;;;;;;;13.27;3.37;;;17.70;99.90;;;;;;5018179;28;20188;-69
2023/10/14 02:46:47;;;;;;;9.23;2.73;;;17.70;99.90;;;;;;5020676;28;20266;-69
2023/10/14 02:49:18;;;;;;;12.27;3.40;;;17.50;99.90;;;;;;5022085;28;20724;-69
2023/10/14 02:51:45;;;;;;;7.77;3.10;;;17.40;99.90;;;;;;5028084;28;20550;-69
2023/10/14 02:54:26;;;;;;;11.67;2.87;;;17.30;99.90;;;;;;5029805;28;20337;-69
2023/10/14 02:57:00;;;;;;;11.60;2.90;;;17.20;99.90;;;;;;5018897;28;20207;-70
2023/10/14 02:59:38;;;;;;;14.47;3.10;;;17.10;99.90;;;;;;5013260;28;20192;-69
2023/10/14 03:05:32;;;;;;;12.03;2.83;;;17.10;99.90;;;;;;5012449;28;20189;-68
2023/10/14 03:07:27;;;;;;;8.23;2.53;;;17.10;99.90;;;;;;5015695;28;20224;-70
2023/10/14 03:09:58;;;;;;;10.50;2.70;;;17.00;99.90;;;;;;5012893;28;20242;-70
2023/10/14 03:12:27;;;;;;;10.80;2.10;;;17.10;99.90;;;;;;5012835;28;20721;-70
2023/10/14 03:14:53;;;;;;;9.30;2.03;;;17.00;99.90;;;;;;5012986;28;20188;-69
2023/10/14 03:17:40;;;;;;;7.40;2.13;;;17.10;99.90;;;;;;5012905;28;20216;-69
2023/10/14 03:20:25;;;;;;;5.40;2.10;;;17.10;99.90;;;;;;5012556;28;20861;-70
2023/10/14 03:22:50;;;;;;;6.47;1.90;;;17.00;99.90;;;;;;5018867;28;20713;-70
2023/10/14 03:25:23;;;;;;;7.13;2.00;;;17.00;99.90;;;;;;5012655;28;20208;-69
2023/10/14 03:27:49;;;;;;;5.50;1.53;;;17.00;99.90;;;;;;5012777;28;20172;-69
2023/10/14 03:30:15;;;;;;;5.93;1.67;;;16.90;99.90;;;;;;5012367;28;20180;-71
2023/10/14 03:32:42;;;;;;;6.23;1.53;;;16.90;99.90;;;;;;5012576;28;20197;-68
2023/10/14 03:35:12;;;;;;;3.93;1.40;;;16.80;99.90;;;;;;5012613;28;20207;-69
2023/10/14 03:37:40;;;;;;;10.00;2.07;;;16.70;99.90;;;;;;5012373;28;20211;-69
2023/10/14 03:42:53;;;;;;;5.90;1.53;;;16.60;99.90;;;;;;5012392;28;20211;-70
2023/10/14 03:45:24;;;;;;;6.70;1.30;;;16.50;99.90;;;;;;5012286;28;20644;-69
2023/10/14 03:47:59;;;;;;;4.27;1.40;;;16.50;99.90;;;;;;5012470;28;20267;-69
2023/10/14 03:50:25;;;;;;;7.80;1.33;;;16.40;99.90;;;;;;5011908;28;20648;-70
2023/10/14 03:52:54;;;;;;;5.10;1.00;;;16.40;99.90;;;;;;5012199;28;20181;-69
2023/10/14 03:55:26;;;;;;;3.80;1.10;;;16.30;99.90;;;;;;5020199;28;20191;-69
2023/10/14 03:58:01;;;;;;;3.93;0.90;;;16.20;99.90;;;;;;5012222;28;20181;-69
2023/10/14 04:00:36;;;;;;;5.43;0.80;;;16.20;99.90;;;;;;5011717;28;20565;-69
2023/10/14 04:03:13;;;;;;;6.27;0.70;;;16.10;99.90;;;;;;5012220;28;20176;-69
2023/10/14 04:05:59;;;;;;;2.93;1.13;;;16.10;99.90;;;;;;5012041;28;20177;-69
2023/10/14 04:08:31;;;;;;;6.17;1.20;;;16.10;99.90;;;;;;5011906;28;20184;-69
2023/10/14 04:11:35;;;;;;;3.57;0.90;;;16.10;99.90;;;;;;5011612;28;20251;-69
2023/10/14 04:14:13;;;;;;;5.97;1.40;;;16.10;99.90;;;;;;5012476;28;20223;-70
2023/10/14 04:19:26;;;;;;;1.13;0.70;;;16.10;99.90;;;;;;5011744;28;20263;-69
2023/10/14 04:21:54;;;;;;;1.73;0.50;;;16.00;99.90;;;;;;5011537;28;20204;-69
2023/10/14 04:26:48;;;;;;;5.90;0.60;;;15.80;99.90;;;;;;5011658;28;20647;-68
2023/10/14 04:32:13;;;;;;;2.60;0.50;;;15.50;99.90;;;;;;5011466;28;20212;-69
2023/10/14 04:34:40;;;;;;;2.43;0.60;;;15.30;99.90;;;;;;5011589;28;20184;-68
2023/10/14 04:37:08;;;;;;;2.10;1.40;;;15.10;99.90;;;;;;5011471;28;20548;-68
2023/10/14 04:39:42;;;;;;;1.53;0.60;;;15.00;99.90;;;;;;5017892;28;20176;-68
2023/10/14 04:44:59;;;;;;;1.43;0.40;;;14.90;99.90;;;;;;5024000;28;20429;-69
2023/10/14 04:47:35;;;;;;;0.40;0.33;;;14.90;99.90;;;;;;5022690;28;20184;-69
2023/10/14 04:50:10;;;;;;;2.57;0.57;;;14.70;99.90;;;;;;5023848;28;20192;-68
2023/10/14 04:52:41;;;;;;;1.67;0.30;;;14.60;99.90;;;;;;5027446;28;20207;-68
2023/10/14 04:55:28;;;;;;;3.10;0.20;;;14.60;99.90;;;;;;5011178;28;20188;-69
2023/10/14 05:00:42;;;;;;;0.40;0.30;;;14.40;99.90;;;;;;5019826;28;20222;-68
2023/10/14 05:03:24;;;;;;;3.67;0.37;;;14.20;99.90;;;;;;5010963;28;20191;-69
2023/10/14 05:05:56;;;;;;;1.47;0.60;;;14.10;99.90;;;;;;5016315;28;20174;-68
2023/10/14 05:08:24;;;;;;;0.67;0.50;;;14.10;99.90;;;;;;5020951;28;20264;-69
2023/10/14 05:10:53;;;;;;;0.97;0.60;;;14.10;99.90;;;;;;5018652;28;20206;-69
2023/10/14 05:13:29;;;;;;;0.90;0.50;;;14.00;99.90;;;;;;5010841;28;20598;-69
2023/10/14 05:16:15;;;;;;;3.60;0.70;;;14.00;99.90;;;;;;5010929;28;20191;-69
2023/10/14 05:18:58;;;;;;;0.50;0.50;;;13.90;99.90;;;;;;5022253;28;20183;-69
2023/10/14 05:21:36;;;;;;;0.60;0.50;;;13.90;99.90;;;;;;5028471;28;20223;-69
2023/10/14 05:24:06;;;;;;;2.50;0.57;;;14.00;99.90;;;;;;5025852;28;20667;-68
2023/10/14 05:26:36;;;;;;;0.50;0.40;;;13.90;99.90;;;;;;5011255;28;20255;-69
2023/10/14 05:29:16;;;;;;;0.60;0.47;;;13.90;99.90;;;;;;5025325;28;20229;-69
2023/10/14 05:31:43;;;;;;;2.10;0.50;;;13.80;99.90;;;;;;5022003;28;20200;-68
2023/10/14 05:34:09;;;;;;;0.60;0.40;;;13.80;99.90;;;;;;5022234;28;20538;-68
2023/10/14 05:36:36;;;;;;;1.37;0.50;;;13.80;99.90;;;;;;5018748;28;20614;-69
2023/10/14 05:39:02;;;;;;;1.20;0.83;;;13.70;99.90;;;;;;5017459;28;20698;-68
2023/10/14 05:41:29;;;;;;;6.60;2.90;;;13.60;99.90;;;;;;5026317;28;20211;-70
2023/10/14 05:43:54;;;;;;;0.83;0.30;;;13.60;99.90;;;;;;5016483;28;20229;-70
2023/10/14 05:46:20;;;;;;;0.60;0.30;;;13.60;99.90;;;;;;5013993;28;20703;-70
2023/10/14 05:48:46;;;;;;;1.90;0.57;;;13.50;99.90;;;;;;5022137;28;20187;-70
2023/10/14 05:51:11;;;;;;;0.33;0.30;;;13.50;99.90;;;;;;5021721;28;20211;-70
2023/10/14 05:53:37;;;;;;;1.40;0.50;;;13.40;99.90;;;;;;5010518;28;20260;-70
2023/10/14 05:56:27;;;;;;;0.63;0.30;;;13.30;99.90;;;;;;5025637;28;20677;-69
2023/10/14 05:58:52;;;;;;;3.30;0.40;;;13.10;99.90;;;;;;5030103;28;20234;-70
2023/10/14 06:01:19;;;;;;;0.57;0.40;;;13.00;99.90;;;;;;5021453;28;20556;-71
2023/10/14 06:03:44;;;;;;;4.23;0.60;;;13.00;99.90;;;;;;5030271;28;20647;-70
2023/10/14 06:06:14;;;;;;;8.17;3.47;;;12.90;99.90;;;;;;5014049;28;20195;-70
2023/10/14 06:08:40;;;;;;;1.30;0.50;;;12.80;99.90;;;;;;5029756;28;20614;-70
2023/10/14 06:11:06;;;;;;;3.40;0.70;;;12.80;99.90;;;;;;5014219;28;20291;-70
2023/10/14 06:13:35;;;;;;;5.90;1.47;;;12.50;99.90;;;;;;5009681;28;20307;-70
2023/10/14 06:16:09;;;;;;;7.07;1.20;;;12.40;99.90;;;;;;5018039;28;20196;-69
2023/10/14 06:18:38;;;;;;;5.50;1.10;;;12.30;99.90;;;;;;5013085;28;20179;-72
2023/10/14 06:21:06;;;;;;;9.50;1.20;;;12.30;99.90;;;;;;5020135;28;20215;-69
2023/10/14 06:23:32;;;;;;;8.37;0.87;;;12.20;99.90;;;;;;5018336;28;20261;-69
2023/10/14 06:25:58;;;;;;;6.67;1.10;;;12.20;99.90;;;;;;5014495;28;20661;-71
2023/10/14 06:28:24;;;;;;;5.57;1.10;;;12.20;99.90;;;;;;5021110;28;20181;-72
2023/10/14 06:30:51;;;;;;;7.87;1.47;;;12.20;99.90;;;;;;5029008;28;20265;-71
2023/10/14 06:33:17;;;;;;;8.40;1.43;;;12.10;99.90;;;;;;5020349;28;20656;-71
2023/10/14 06:35:42;;;;;;;14.33;1.43;;;12.20;99.90;;;;;;5009438;28;20177;-74
2023/10/14 06:38:10;;;;;;;12.03;1.43;;;12.20;99.90;;;;;;5017002;28;20238;-71
2023/10/14 06:40:36;;;;;;;8.03;1.57;;;12.10;99.90;;;;;;5029812;28;20175;-71
2023/10/14 06:43:12;;;;;;;9.37;1.40;;;12.20;99.90;;;;;;5024501;28;20208;-72
2023/10/14 06:45:38;;;;;;;4.40;1.30;;;12.20;99.90;;;;;;5020883;28;20165;-70
2023/10/14 06:48:09;;;;;;;17.30;1.97;;;12.30;99.90;;;;;;5020961;28;20231;-73
2023/10/14 06:50:37;;;;;;;8.30;1.47;;;12.30;99.90;;;;;;5012360;28;20176;-72
2023/10/14 06:53:07;;;;;;;11.13;2.00;;;12.40;99.90;;;;;;5027951;28;20183;-74
2023/10/14 06:55:37;;;;;;;6.03;1.50;;;12.40;99.90;;;;;;5024341;28;20682;-71
2023/10/14 06:58:23;;;;;;;5.30;1.20;;;12.30;99.90;;;;;;5025522;28;20172;-73
2023/10/14 07:00:49;;;;;;;6.50;1.63;;;12.30;99.90;;;;;;5025258;28;20212;-72
2023/10/14 07:03:15;;;;;;;12.53;1.50;;;12.40;99.90;;;;;;5023675;28;20191;-73
2023/10/14 07:05:57;;;;;;;11.43;1.90;;;12.30;99.90;;;;;;5024477;28;20223;-72
2023/10/14 07:08:27;;;;;;;5.07;2.10;;;12.40;99.90;;;;;;5030458;28;20631;-72
2023/10/14 07:10:54;;;;;;;16.77;2.23;;;12.50;99.90;;;;;;5025925;28;20235;-69
2023/10/14 07:13:23;;;;;;;9.67;2.20;;;12.50;99.90;;;;;;5023896;28;20195;-70
2023/10/14 07:15:51;;;;;;;10.40;2.30;;;12.50;99.90;;;;;;5032204;28;20180;-71
2023/10/14 07:18:23;;;;;;;7.87;1.70;;;12.50;99.90;;;;;;5023753;28;20184;-71
2023/10/14 07:21:01;;;;;;;11.43;2.60;;;12.40;99.90;;;;;;5030420;28;20227;-70
2023/10/14 07:23:27;;;;;;;11.13;1.50;;;12.40;99.90;;;;;;5031931;28;20183;-72
2023/10/14 07:25:53;;;;;;;10.30;2.03;;;12.30;99.90;;;;;;5031919;28;20172;-70
2023/10/14 07:28:18;;;;;;;14.70;2.00;;;12.30;99.90;;;;;;5032035;28;20333;-70
2023/10/14 07:30:48;;;;;;;12.50;2.07;;;12.20;99.90;;;;;;5031564;28;20568;-71
2023/10/14 07:33:16;;;;;;;6.83;1.37;;;12.30;99.90;;;;;;5023282;28;20678;-70
2023/10/14 07:35:41;;;;;;;8.97;1.67;;;12.50;99.90;;;;;;5023994;28;20516;-71
2023/10/14 07:38:08;;;;;;;9.57;1.63;;;12.60;99.90;;;;;;5031571;28;20191;-70
2023/10/14 07:40:34;;;;;;;13.17;1.93;;;12.70;99.90;;;;;;5031053;28;20180;-71
2023/10/14 07:43:08;;;;;;;13.20;1.80;;;12.90;99.90;;;;;;5031543;28;20226;-69
2023/10/14 07:45:35;;;;;;;8.07;1.80;;;13.20;99.90;;;;;;5031456;28;20202;-71
2023/10/14 07:48:09;;;;;;;15.70;2.40;;;13.40;99.90;;;;;;5024917;28;20184;-70
2023/10/14 07:50:42;;;;;;;18.30;2.60;;;13.60;99.90;;;;;;5022793;28;20180;-72
2023/10/14 07:53:12;;;;;;;11.43;2.10;;;14.00;99.90;;;;;;5031302;28;20679;-71
2023/10/14 07:55:42;;;;;;;9.73;1.80;;;14.40;99.90;;;;;;5031595;28;20285;-71
2023/10/14 07:58:09;;;;;;;14.33;1.63;;;14.40;99.90;;;;;;5031436;28;20176;-70
2023/10/14 08:00:48;;;;;;;6.27;1.90;;;14.20;99.90;;;;;;5030758;28;20204;-71
2023/10/14 08:03:16;;;;;;;10.97;2.30;;;14.30;99.90;;;;;;5031347;28;20244;-72
2023/10/14 08:05:44;;;;;;;13.03;1.90;;;14.10;99.90;;;;;;5023406;28;20655;-71
2023/10/14 08:08:10;;;;;;;10.93;1.80;;;14.00;99.90;;;;;;5024277;28;20172;-73
2023/10/14 08:10:43;;;;;;;17.83;1.93;;;13.90;99.90;;;;;;5027593;28;20203;-73
2023/10/14 08:13:13;;;;;;;14.50;2.03;;;13.80;99.90;;;;;;5027137;28;20176;-73
2023/10/14 08:15:40;;;;;;;10.47;2.13;;;13.60;99.90;;;;;;5022885;28;20196;-72
2023/10/14 08:18:06;;;;;;;14.17;2.10;;;13.50;99.90;;;;;;5030857;28;20489;-74
2023/10/14 08:20:36;;;;;;;19.13;2.57;;;13.30;99.90;;;;;;5027790;28;20726;-71
2023/10/14 08:23:09;;;;;;;19.53;3.50;;;13.30;99.90;;;;;;5025907;28;20204;-69
2023/10/14 08:25:35;;;;;;;26.00;3.90;;;13.20;99.90;;;;;;5023049;28;20180;-73
2023/10/14 08:28:04;;;;;;;17.77;3.57;;;13.20;99.90;;;;;;5030808;28;20193;-72
2023/10/14 08:30:33;;;;;;;13.13;2.33;;;13.30;99.90;;;;;;5028697;28;20552;-73
2023/10/14 08:33:01;;;;;;;15.27;3.47;;;13.50;99.90;;;;;;5030685;28;20175;-74
2023/10/14 08:35:27;;;;;;;14.17;3.50;;;13.60;99.90;;;;;;5030722;28;20183;-75
2023/10/14 08:37:54;;;;;;;9.23;2.57;;;13.50;99.90;;;;;;5030572;28;20182;-74
2023/10/14 08:40:25;;;;;;;13.27;2.50;;;13.50;99.90;;;;;;5030137;28;20191;-74
2023/10/14 08:43:02;;;;;;;16.50;3.00;;;13.20;99.90;;;;;;5022226;28;20188;-74
2023/10/14 08:45:28;;;;;;;13.43;2.60;;;13.00;99.90;;;;;;5026862;28;20190;-74
2023/10/14 08:47:58;;;;;;;10.57;2.57;;;12.90;99.90;;;;;;5024242;28;20540;-75
2023/10/14 08:50:25;;;;;;;13.70;2.73;;;12.90;99.90;;;;;;5029062;28;20172;-74
2023/10/14 08:52:56;;;;;;;10.17;2.17;;;13.10;99.90;;;;;;5023574;28;20199;-73
2023/10/14 08:55:23;;;;;;;12.87;2.57;;;13.10;99.90;;;;;;5030041;28;20184;-75
2023/10/14 08:57:49;;;;;;;15.93;2.80;;;13.20;99.90;;;;;;5017365;28;20237;-72
2023/10/14 09:00:23;;;;;;;17.73;3.70;;;13.70;99.90;;;;;;5026429;28;20202;-73
2023/10/14 09:02:53;;;;;;;10.73;2.93;;;14.10;99.90;;;;;;5014584;28;20835;-74
2023/10/14 09:05:20;;;;;;;11.20;3.80;;;14.60;99.90;;;;;;5030038;28;20180;-74
2023/10/14 09:07:49;;;;;;;9.77;2.30;;;15.10;99.90;;;;;;5030258;28;20452;-73
2023/10/14 09:10:18;;;;;;;7.37;2.40;;;15.60;99.90;;;;;;5029651;28;20225;-73
2023/10/14 09:12:59;;;;;;;6.40;2.23;;;16.00;99.90;;;;;;5030312;28;20223;-73
2023/10/14 09:15:26;;;;;;;17.63;3.13;;;16.50;99.90;;;;;;5021980;28;20179;-75
2023/10/14 09:17:55;;;;;;;12.90;3.47;;;16.60;99.90;;;;;;5024627;28;20176;-73
2023/10/14 09:20:38;;;;;;;15.73;3.17;;;16.60;99.90;;;;;;5026781;28;20195;-74
2023/10/14 09:23:31;;;;;;;17.57;4.40;;;16.60;99.90;;;;;;5022511;28;20703;-74
2023/10/14 09:25:59;;;;;;;13.97;3.03;;;16.80;99.90;;;;;;5018262;28;20180;-73
2023/10/14 09:28:29;;;;;;;13.20;2.57;;;16.80;99.90;;;;;;5019825;28;20195;-73
2023/10/14 09:30:57;;;;;;;10.20;3.50;;;16.80;99.90;;;;;;5021306;28;20211;-74
2023/10/14 09:33:28;;;;;;;9.87;2.10;;;17.00;99.90;;;;;;5021796;28;20555;-73
2023/10/14 09:36:02;;;;;;;12.40;2.60;;;17.20;99.90;;;;;;5030140;28;20203;-72
2023/10/14 09:38:28;;;;;;;9.90;2.47;;;17.30;99.90;;;;;;5029767;28;20176;-72
2023/10/14 09:40:57;;;;;;;12.87;2.30;;;17.60;99.90;;;;;;5027847;28;20242;-73
2023/10/14 09:43:26;;;;;;;10.67;2.60;;;17.70;99.90;;;;;;5021260;28;20189;-73
2023/10/14 09:45:57;;;;;;;15.57;2.30;;;17.80;99.90;;;;;;5029760;28;20176;-74
2023/10/14 09:48:30;;;;;;;13.70;2.30;;;17.30;99.90;;;;;;5021492;28;20180;-72
2023/10/14 09:50:57;;;;;;;5.30;1.80;;;16.80;99.90;;;;;;5029259;28;20663;-71
2023/10/14 09:53:27;;;;;;;15.47;4.50;;;16.40;99.90;;;;;;5028475;28;20183;-73
2023/10/14 09:55:58;;;;;;;15.30;4.53;;;16.10;99.90;;;;;;5023308;28;20226;-72
2023/10/14 09:58:26;;;;;;;19.73;6.00;;;15.60;99.90;;;;;;5029462;28;20657;-73
2023/10/14 10:00:53;;;;;;;15.73;4.87;;;15.60;99.90;;;;;;5029117;28;20733;-72
2023/10/14 10:03:21;;;;;;;18.33;5.70;;;15.90;99.90;;;;;;5029113;28;20208;-72
2023/10/14 10:06:11;;;;;;;13.27;3.63;;;16.10;99.90;;;;;;5022519;28;20267;-72
2023/10/14 10:09:09;;;;;;;12.13;2.93;;;16.50;99.90;;;;;;5029457;28;20185;-73
2023/10/14 10:11:37;;;;;;;5.70;2.33;;;16.70;99.90;;;;;;5020623;28;20211;-73
2023/10/14 10:14:12;;;;;;;12.87;2.10;;;17.00;99.90;;;;;;5029607;28;20604;-77
2023/10/14 10:16:41;;;;;;;6.97;2.37;;;17.10;99.90;;;;;;5033156;28;20183;-72
2023/10/14 10:19:08;;;;;;;11.53;2.63;;;17.00;99.90;;;;;;5038450;28;20655;-72
2023/10/14 10:21:40;;;;;;;9.47;2.10;;;16.90;99.90;;;;;;5032717;28;20294;-71
2023/10/14 10:24:38;;;;;;;8.03;2.07;;;16.50;99.90;;;;;;5024989;28;20182;-73
2023/10/14 10:27:03;;;;;;;13.07;2.70;;;16.10;99.90;;;;;;5028266;28;20210;-72
2023/10/14 10:29:33;;;;;;;5.57;2.30;;;16.00;99.90;;;;;;5030993;28;20175;-71
2023/10/14 10:32:07;;;;;;;7.27;2.27;;;16.40;99.90;;;;;;5026757;28;20203;-70
2023/10/14 10:34:33;;;;;;;7.53;2.33;;;16.50;99.90;;;;;;5012643;28;20694;-70
2023/10/14 10:37:02;;;;;;;11.40;2.00;;;16.50;99.90;;;;;;5027341;28;20195;-71
2023/10/14 10:39:27;;;;;;;7.47;2.20;;;16.10;99.90;;;;;;5024474;28;20188;-71
2023/10/14 10:41:54;;;;;;;11.30;2.37;;;15.80;99.90;;;;;;5032712;28;20218;-71
2023/10/14 10:44:19;;;;;;;11.27;1.97;;;15.70;99.90;;;;;;5024777;28;20258;-72
2023/10/14 10:46:50;;;;;;;8.60;2.30;;;15.60;99.90;;;;;;5032887;28;20666;-72
2023/10/14 10:49:48;;;;;;;14.13;2.47;;;15.50;99.90;;;;;;5032607;28;20179;-71
2023/10/14 10:52:14;;;;;;;7.83;2.10;;;15.80;99.90;;;;;;5024226;28;20269;-71
2023/10/14 10:54:44;;;;;;;11.40;2.47;;;16.00;99.90;;;;;;5024530;28;20236;-71
2023/10/14 10:57:13;;;;;;;8.23;2.13;;;16.20;99.90;;;;;;5025046;28;20181;-71
2023/10/14 10:59:40;;;;;;;8.97;2.20;;;16.20;99.90;;;;;;5030941;28;20203;-70
2023/10/14 11:02:18;;;;;;;11.43;2.60;;;16.00;99.90;;;;;;5032178;28;20203;-72
2023/10/14 11:04:45;;;;;;;12.10;2.73;;;15.50;99.90;;;;;;5031505;28;20172;-71
2023/10/14 11:07:11;;;;;;;10.87;2.57;;;15.20;99.90;;;;;;5031694;28;20190;-70
2023/10/14 11:09:39;;;;;;;12.43;2.70;;;15.00;99.90;;;;;;5031373;28;20176;-72
2023/10/14 11:12:09;;;;;;;12.33;2.53;;;15.00;99.90;;;;;;5031555;28;20206;-71
2023/10/14 11:14:35;;;;;;;8.43;2.40;;;15.00;99.90;;;;;;5032141;28;20249;-71
2023/10/14 11:17:01;;;;;;;10.23;2.00;;;15.00;99.90;;;;;;5017750;28;20180;-71
2023/10/14 11:19:30;;;;;;;12.63;2.70;;;15.20;99.90;;;;;;5021863;28;20526;-72
2023/10/14 11:21:58;;;;;;;10.93;2.37;;;15.30;99.90;;;;;;5031902;28;20208;-71
2023/10/14 11:24:24;;;;;;;10.70;2.17;;;15.20;99.90;;;;;;5031843;28;20183;-71
2023/10/14 11:26:50;;;;;;;8.10;2.27;;;15.30;99.90;;;;;;5023194;28;20302;-71
2023/10/14 11:29:16;;;;;;;8.43;2.00;;;15.10;99.90;;;;;;5023772;28;20195;-71
2023/10/14 11:31:45;;;;;;;11.97;2.70;;;15.00;99.90;;;;;;5031608;28;20207;-70
2023/10/14 11:34:14;;;;;;;9.80;2.23;;;15.10;99.90;;;;;;5032083;28;20263;-71
2023/10/14 11:36:41;;;;;;;8.70;1.97;;;15.20;99.90;;;;;;5031909;28;20651;-70
2023/10/14 11:39:13;;;;;;;8.10;2.20;;;15.00;99.90;;;;;;5031745;28;20182;-71
2023/10/14 11:41:41;;;;;;;7.73;1.80;;;14.90;99.90;;;;;;5031314;28;20200;-73
2023/10/14 11:44:07;;;;;;;11.73;2.60;;;14.70;99.90;;;;;;5024652;28;20256;-71
2023/10/14 11:46:39;;;;;;;11.37;2.10;;;14.40;99.90;;;;;;5030437;28;20287;-71
2023/10/14 11:49:09;;;;;;;13.83;2.40;;;14.20;99.90;;;;;;5031666;28;20183;-71
2023/10/14 11:51:40;;;;;;;8.50;2.60;;;14.20;99.90;;;;;;5028543;28;20287;-71
2023/10/14 11:54:07;;;;;;;13.73;2.37;;;14.00;99.90;;;;;;5011734;28;20176;-69
2023/10/14 11:56:33;;;;;;;11.97;3.03;;;14.00;99.90;;;;;;5011431;28;20181;-70
2023/10/14 11:59:00;;;;;;;6.23;2.10;;;14.10;99.90;;;;;;5018452;28;20187;-71
2023/10/14 12:01:26;;;;;;;10.97;2.50;;;14.50;99.90;;;;;;5027405;28;20196;-71
2023/10/14 12:03:52;;;;;;;8.47;2.20;;;14.60;99.90;;;;;;5015076;28;20176;-69
2023/10/14 12:06:17;;;;;;;6.53;2.17;;;14.60;99.90;;;;;;5014534;28;20533;-69
2023/10/14 12:08:45;;;;;;;12.13;3.20;;;14.70;99.90;;;;;;5015228;28;20176;-69
2023/10/14 12:11:14;;;;;;;14.60;2.43;;;15.10;99.90;;;;;;5015180;28;20200;-69
2023/10/14 12:13:40;;;;;;;10.70;2.03;;;15.50;99.90;;;;;;5027517;28;20184;-69
2023/10/14 12:16:07;;;;;;;11.53;2.10;;;15.90;99.90;;;;;;5026301;28;20246;-70
2023/10/14 12:18:36;;;;;;;9.73;1.97;;;16.20;99.90;;;;;;5014578;28;20181;-71
2023/10/14 12:21:03;;;;;;;12.80;2.23;;;16.40;99.90;;;;;;5024279;28;20216;-69
2023/10/14 12:23:31;;;;;;;10.57;1.93;;;16.70;99.90;;;;;;5009689;28;20690;-69
2023/10/14 12:25:58;;;;;;;12.30;2.00;;;16.70;99.90;;;;;;5011048;28;20179;-69
2023/10/14 12:28:30;;;;;;;13.90;2.10;;;16.50;99.90;;;;;;5011068;28;20263;-69
2023/10/14 12:30:58;;;;;;;9.23;1.80;;;16.50;99.90;;;;;;5016064;28;20192;-69
2023/10/14 12:33:31;;;;;;;10.83;2.00;;;16.60;99.90;;;;;;5013179;28;20635;-70
2023/10/14 12:35:58;;;;;;;14.10;2.23;;;16.70;99.90;;;;;;5019311;28;20674;-69
2023/10/14 12:38:26;;;;;;;13.17;1.63;;;16.70;99.90;;;;;;5009452;28;20173;-70
2023/10/14 12:40:53;;;;;;;7.73;1.70;;;16.70;99.90;;;;;;5020945;28;20655;-69
2023/10/14 12:43:28;;;;;;;10.70;2.20;;;17.00;99.90;;;;;;5029042;28;20514;-69
2023/10/14 12:46:19;;;;;;;8.13;1.60;;;17.20;99.90;;;;;;5019411;28;20310;-69
2023/10/14 12:48:46;;;;;;;11.80;1.37;;;17.20;99.90;;;;;;5022386;28;20167;-69
2023/10/14 12:51:30;;;;;;;19.43;2.50;;;17.30;99.90;;;;;;5014224;28;20193;-67
2023/10/14 12:53:57;;;;;;;8.40;1.63;;;17.40;99.90;;;;;;5010674;28;20211;-69
2023/10/14 12:56:26;;;;;;;12.13;1.90;;;17.40;99.90;;;;;;5011484;28;20697;-71
2023/10/14 12:58:52;;;;;;;7.03;1.33;;;17.00;99.90;;;;;;5025590;28;20177;-69
2023/10/14 13:01:20;;;;;;;9.37;1.30;;;16.60;99.90;;;;;;5018355;28;20575;-69
2023/10/14 13:03:51;;;;;;;14.60;2.10;;;16.30;99.90;;;;;;5013339;28;20214;-70
2023/10/14 13:06:22;;;;;;;9.80;2.00;;;16.00;99.90;;;;;;5029333;28;20673;-72
2023/10/14 13:08:51;;;;;;;11.03;2.00;;;15.90;99.90;;;;;;5022005;28;20266;-71
2023/10/14 13:11:17;;;;;;;7.37;1.83;;;16.10;99.90;;;;;;5021582;28;20687;-72
2023/10/14 13:13:50;;;;;;;10.20;1.77;;;16.40;99.90;;;;;;5013804;28;20187;-71
2023/10/14 13:16:19;;;;;;;11.30;1.97;;;16.60;99.90;;;;;;5022272;28;20274;-70
2023/10/14 13:18:47;;;;;;;10.37;1.83;;;16.70;99.90;;;;;;5024873;28;20191;-72
2023/10/14 13:21:18;;;;;;;9.17;1.80;;;17.00;99.90;;;;;;5025540;28;20211;-69
2023/10/14 13:23:46;;;;;;;8.23;1.80;;;17.00;99.90;;;;;;5022186;28;20235;-71
2023/10/14 13:26:15;;;;;;;8.37;1.87;;;17.10;99.90;;;;;;5014274;28;20187;-69
2023/10/14 13:28:50;;;;;;;11.47;2.60;;;17.20;99.90;;;;;;5021583;28;20190;-69
2023/10/14 13:31:16;;;;;;;8.57;2.03;;;17.30;99.90;;;;;;5021753;28;20278;-71
2023/10/14 13:33:46;;;;;;;7.17;1.87;;;17.10;99.90;;;;;;5021669;28;20659;-69